Time;durP1;ratioP1;P1;durP2;ratioP2;P2;SDS_P1;SDS_P2;PMS_P1;PMS_P2;Temp;Humidity;BMP_temperature;BMP_pressure;BME280_temperature;BME280_humidity;BME280_pressure;Samples;Min_cycle;Max_cycle;Signal;HPM_P1;HPM_P2
2023/06/29 00:01:55;;;;;;;4.43;2.60;;;;;;;;;;12917499;22;20430;-87
2023/06/29 00:06:57;;;;;;;5.25;2.95;;;;;;;;;;12917491;22;20783;-86
2023/06/29 00:12:01;;;;;;;3.67;2.93;;;;;;;;;;12938705;23;20360;-86
2023/06/29 00:17:04;;;;;;;4.53;3.20;;;;;;;;;;12918227;22;20446;-86
2023/06/29 00:22:08;;;;;;;4.82;3.33;;;;;;;;;;12917463;22;20368;-86
2023/06/29 00:27:13;;;;;;;7.10;3.30;;;;;;;;;;12916555;23;20372;-86
2023/06/29 00:32:16;;;;;;;4.47;3.58;;;;;;;;;;12916680;22;20441;-86
2023/06/29 00:37:18;;;;;;;4.70;3.60;;;;;;;;;;12914843;23;20462;-87
2023/06/29 00:42:22;;;;;;;7.60;3.78;;;;;;;;;;12916594;22;20435;-86
2023/06/29 00:47:25;;;;;;;4.03;2.80;;;;;;;;;;12917824;22;20362;-86
2023/06/29 00:52:29;;;;;;;4.50;3.22;;;;;;;;;;12917223;22;20391;-86
2023/06/29 00:57:32;;;;;;;4.75;3.50;;;;;;;;;;12916866;22;20380;-86
2023/06/29 01:02:40;;;;;;;5.53;3.57;;;;;;;;;;12917414;22;20386;-86
2023/06/29 01:07:48;;;;;;;4.75;3.45;;;;;;;;;;12915958;22;20437;-87
2023/06/29 01:12:54;;;;;;;5.43;3.83;;;;;;;;;;12916910;22;20368;-86
2023/06/29 01:18:00;;;;;;;5.13;4.07;;;;;;;;;;12937760;23;20376;-86
2023/06/29 01:23:08;;;;;;;5.13;3.80;;;;;;;;;;12915847;22;20356;-86
2023/06/29 01:28:12;;;;;;;5.05;3.65;;;;;;;;;;12916240;22;20824;-86
2023/06/29 01:33:16;;;;;;;6.55;4.60;;;;;;;;;;12917125;22;20368;-86
2023/06/29 01:38:24;;;;;;;4.90;4.40;;;;;;;;;;12920646;22;20383;-86
2023/06/29 01:43:30;;;;;;;7.05;5.43;;;;;;;;;;12920783;23;20360;-86
2023/06/29 01:48:34;;;;;;;7.22;4.65;;;;;;;;;;12921208;23;20360;-86
2023/06/29 01:53:37;;;;;;;4.95;4.38;;;;;;;;;;12920195;23;20368;-86
2023/06/29 01:58:41;;;;;;;6.40;3.67;;;;;;;;;;12920792;23;20441;-86
2023/06/29 02:03:43;;;;;;;3.93;3.53;;;;;;;;;;12919928;23;20939;-86
2023/06/29 02:08:45;;;;;;;4.22;3.83;;;;;;;;;;12918860;23;20372;-86
2023/06/29 02:13:49;;;;;;;4.72;3.80;;;;;;;;;;12919165;23;20360;-86
2023/06/29 02:18:52;;;;;;;4.88;3.83;;;;;;;;;;12919455;23;20380;-86
2023/06/29 02:23:54;;;;;;;6.27;3.90;;;;;;;;;;12919735;23;20422;-87
2023/06/29 02:28:58;;;;;;;5.68;3.92;;;;;;;;;;12920376;23;20430;-86
2023/06/29 02:34:00;;;;;;;4.55;4.13;;;;;;;;;;12919688;23;20430;-86
2023/06/29 02:39:04;;;;;;;5.60;4.28;;;;;;;;;;12918808;22;20388;-86
2023/06/29 02:44:08;;;;;;;4.32;3.20;;;;;;;;;;12919704;22;20364;-86
2023/06/29 02:49:11;;;;;;;4.75;3.20;;;;;;;;;;12920366;22;20405;-86
2023/06/29 02:54:14;;;;;;;3.30;3.00;;;;;;;;;;12918464;22;20926;-86
2023/06/29 02:59:17;;;;;;;3.20;2.63;;;;;;;;;;12919472;22;20441;-86
2023/06/29 03:04:20;;;;;;;4.10;2.90;;;;;;;;;;12920412;22;20423;-86
2023/06/29 03:09:22;;;;;;;3.53;2.85;;;;;;;;;;12918750;22;20364;-86
2023/06/29 03:14:26;;;;;;;3.28;2.95;;;;;;;;;;12918649;22;20442;-86
2023/06/29 03:19:28;;;;;;;3.87;3.10;;;;;;;;;;12919087;22;20384;-86
2023/06/29 03:24:31;;;;;;;4.00;2.60;;;;;;;;;;12918312;22;20811;-86
2023/06/29 03:29:35;;;;;;;5.43;2.90;;;;;;;;;;12918445;22;20423;-86
2023/06/29 03:34:37;;;;;;;3.58;3.00;;;;;;;;;;12919611;22;20410;-86
2023/06/29 03:39:39;;;;;;;4.43;2.95;;;;;;;;;;12917729;22;20388;-86
2023/06/29 03:44:43;;;;;;;4.10;3.15;;;;;;;;;;12918043;22;20365;-86
2023/06/29 03:49:45;;;;;;;3.40;3.10;;;;;;;;;;12919037;22;20406;-86
2023/06/29 03:54:49;;;;;;;4.00;2.90;;;;;;;;;;12918415;22;20434;-86
2023/06/29 03:59:53;;;;;;;3.10;2.80;;;;;;;;;;12918536;22;20929;-86
2023/06/29 04:04:55;;;;;;;4.40;3.05;;;;;;;;;;12938968;23;20372;-86
2023/06/29 04:09:58;;;;;;;4.60;3.05;;;;;;;;;;12916723;22;20861;-86
2023/06/29 04:15:01;;;;;;;3.33;2.78;;;;;;;;;;12917335;22;20486;-86
2023/06/29 04:20:05;;;;;;;3.03;2.70;;;;;;;;;;12918545;22;20384;-86
2023/06/29 04:25:08;;;;;;;3.43;2.80;;;;;;;;;;12937945;23;20365;-86
2023/06/29 04:30:12;;;;;;;3.72;2.47;;;;;;;;;;12938832;23;20372;-86
2023/06/29 04:35:15;;;;;;;3.05;2.67;;;;;;;;;;12917899;22;20373;-86
2023/06/29 04:40:17;;;;;;;3.85;2.45;;;;;;;;;;12917548;22;20415;-86
2023/06/29 04:45:21;;;;;;;4.88;2.60;;;;;;;;;;12917792;22;20937;-86
2023/06/29 04:50:25;;;;;;;3.25;2.50;;;;;;;;;;12917273;22;20426;-86
2023/06/29 04:55:28;;;;;;;2.57;2.30;;;;;;;;;;12917379;23;20356;-86
2023/06/29 05:00:32;;;;;;;2.88;2.22;;;;;;;;;;12916353;22;20384;-86
2023/06/29 05:05:35;;;;;;;3.57;2.27;;;;;;;;;;12916603;22;20368;-86
2023/06/29 05:10:37;;;;;;;3.75;2.30;;;;;;;;;;12915728;22;20425;-86
2023/06/29 05:15:41;;;;;;;3.17;2.20;;;;;;;;;;12915938;22;20578;-86
2023/06/29 05:20:43;;;;;;;2.50;2.00;;;;;;;;;;12919510;23;20712;-94
2023/06/29 05:25:45;;;;;;;3.93;2.10;;;;;;;;;;12919747;22;20395;-89
2023/06/29 05:30:49;;;;;;;3.92;2.20;;;;;;;;;;12918912;22;20395;-82
2023/06/29 05:35:51;;;;;;;3.13;2.07;;;;;;;;;;12915474;22;20740;-82
2023/06/29 05:40:53;;;;;;;4.53;2.10;;;;;;;;;;12914176;22;20384;-83
2023/06/29 05:45:57;;;;;;;2.85;1.90;;;;;;;;;;12914960;22;20751;-82
2023/06/29 05:50:59;;;;;;;3.17;1.98;;;;;;;;;;12915298;22;20746;-83
2023/06/29 05:56:02;;;;;;;3.80;1.90;;;;;;;;;;12914642;22;20402;-82
2023/06/29 06:01:06;;;;;;;5.70;1.97;;;;;;;;;;12915629;22;20411;-83
2023/06/29 06:06:08;;;;;;;2.70;2.00;;;;;;;;;;12915368;22;20364;-83
2023/06/29 06:11:10;;;;;;;2.63;2.03;;;;;;;;;;12915443;22;20376;-82
2023/06/29 06:16:14;;;;;;;3.72;2.10;;;;;;;;;;12915711;22;20434;-83
2023/06/29 06:21:17;;;;;;;3.08;2.15;;;;;;;;;;12916376;22;20384;-83
2023/06/29 06:26:19;;;;;;;3.70;2.10;;;;;;;;;;12917710;22;20391;-83
2023/06/29 06:31:25;;;;;;;2.80;1.88;;;;;;;;;;12919203;22;20360;-83
2023/06/29 06:36:30;;;;;;;6.20;1.97;;;;;;;;;;12919399;22;20433;-83
2023/06/29 06:41:32;;;;;;;4.90;1.70;;;;;;;;;;12917976;22;20388;-83
2023/06/29 06:46:36;;;;;;;3.40;2.10;;;;;;;;;;12918465;22;20423;-83
2023/06/29 06:51:39;;;;;;;3.53;1.73;;;;;;;;;;12918236;22;20360;-83
2023/06/29 06:56:41;;;;;;;3.73;2.40;;;;;;;;;;12918467;22;20716;-83
2023/06/29 07:01:45;;;;;;;2.47;1.50;;;;;;;;;;12918951;22;20446;-83
2023/06/29 07:06:47;;;;;;;2.67;1.57;;;;;;;;;;12918409;22;20422;-82
2023/06/29 07:11:50;;;;;;;3.22;1.60;;;;;;;;;;12917893;22;20435;-83
2023/06/29 07:16:55;;;;;;;1.83;1.60;;;;;;;;;;12917537;22;20431;-83
2023/06/29 07:21:57;;;;;;;2.47;1.43;;;;;;;;;;12917106;22;20414;-82
2023/06/29 07:27:00;;;;;;;1.67;1.58;;;;;;;;;;12918540;22;20425;-82
2023/06/29 07:32:04;;;;;;;2.57;1.40;;;;;;;;;;12917733;22;20399;-83
2023/06/29 07:37:07;;;;;;;2.50;1.47;;;;;;;;;;12917603;22;20364;-83
2023/06/29 07:42:09;;;;;;;2.33;1.58;;;;;;;;;;12917202;22;20438;-84
2023/06/29 07:47:12;;;;;;;2.75;1.70;;;;;;;;;;12917347;23;20720;-83
2023/06/29 07:52:15;;;;;;;2.80;1.43;;;;;;;;;;12916847;22;20373;-83
2023/06/29 07:57:18;;;;;;;1.95;1.40;;;;;;;;;;12917868;22;20697;-83
2023/06/29 08:02:22;;;;;;;3.60;1.80;;;;;;;;;;12917073;22;20763;-83
2023/06/29 08:07:24;;;;;;;3.60;1.80;;;;;;;;;;12916929;22;20364;-82
2023/06/29 08:12:26;;;;;;;6.67;1.93;;;;;;;;;;12917831;22;20891;-83
2023/06/29 08:17:31;;;;;;;5.82;1.85;;;;;;;;;;12916715;22;20364;-83
2023/06/29 08:22:34;;;;;;;2.87;1.77;;;;;;;;;;12937340;23;20424;-84
2023/06/29 08:27:37;;;;;;;5.82;2.05;;;;;;;;;;12916151;22;20361;-83
2023/06/29 08:32:42;;;;;;;2.80;1.43;;;;;;;;;;12917139;22;20369;-83
2023/06/29 08:37:44;;;;;;;5.90;1.87;;;;;;;;;;12916177;22;20361;-84
2023/06/29 08:42:46;;;;;;;2.40;1.60;;;;;;;;;;12915886;22;20372;-84
2023/06/29 08:47:52;;;;;;;2.05;1.48;;;;;;;;;;12915999;22;20398;-84
2023/06/29 08:52:57;;;;;;;1.75;1.40;;;;;;;;;;12915346;22;20415;-83
2023/06/29 08:57:59;;;;;;;2.80;1.63;;;;;;;;;;12916189;22;20818;-87
2023/06/29 09:03:04;;;;;;;1.90;1.53;;;;;;;;;;12937990;23;20389;-87
2023/06/29 09:08:08;;;;;;;4.85;1.70;;;;;;;;;;12916553;22;20360;-87
2023/06/29 09:13:11;;;;;;;3.40;1.80;;;;;;;;;;12916334;22;20372;-87
2023/06/29 09:18:15;;;;;;;1.50;1.35;;;;;;;;;;12938093;23;20372;-87
2023/06/29 09:23:17;;;;;;;2.47;1.42;;;;;;;;;;12937544;23;20364;-87
2023/06/29 09:28:20;;;;;;;1.87;1.33;;;;;;;;;;12916934;22;20372;-87
2023/06/29 09:33:26;;;;;;;1.77;1.50;;;;;;;;;;12916904;22;20368;-87
2023/06/29 09:38:31;;;;;;;1.60;1.40;;;;;;;;;;12916731;22;20384;-87
2023/06/29 09:43:33;;;;;;;3.22;1.40;;;;;;;;;;12937198;23;20423;-87
2023/06/29 09:48:45;;;;;;;3.00;1.30;;;;;;;;;;12917393;23;20365;-87
2023/06/29 09:53:48;;;;;;;2.92;1.40;;;;;;;;;;12937541;23;20426;-87
2023/06/29 09:58:50;;;;;;;2.40;1.20;;;;;;;;;;12919686;23;20376;-87
2023/06/29 10:03:54;;;;;;;2.25;1.40;;;;;;;;;;12921037;22;20368;-87
2023/06/29 10:08:59;;;;;;;2.05;1.30;;;;;;;;;;12919983;22;20356;-87
2023/06/29 10:14:04;;;;;;;1.60;1.50;;;;;;;;;;12920851;22;20368;-87
2023/06/29 10:19:15;;;;;;;2.50;1.45;;;;;;;;;;12920082;22;20880;-87
2023/06/29 10:24:22;;;;;;;4.28;1.45;;;;;;;;;;12919360;22;20368;-87
2023/06/29 10:29:24;;;;;;;5.10;1.73;;;;;;;;;;12920526;22;20462;-87
2023/06/29 10:34:28;;;;;;;2.08;1.40;;;;;;;;;;12920495;22;20426;-87
2023/06/29 10:39:41;;;;;;;1.75;1.40;;;;;;;;;;12919664;22;20380;-87
2023/06/29 10:44:47;;;;;;;2.30;1.42;;;;;;;;;;12941054;23;20763;-87
2023/06/29 10:49:56;;;;;;;4.80;1.60;;;;;;;;;;12919904;22;20453;-88
2023/06/29 10:55:14;;;;;;;2.10;1.23;;;;;;;;;;12918284;23;20376;-87
2023/06/29 11:00:17;;;;;;;2.08;1.23;;;;;;;;;;12920104;22;20446;-87
2023/06/29 11:05:22;;;;;;;1.92;1.17;;;;;;;;;;12918817;22;20914;-87
2023/06/29 11:10:24;;;;;;;3.10;1.17;;;;;;;;;;12917923;23;20369;-87
2023/06/29 11:15:28;;;;;;;1.38;1.10;;;;;;;;;;12918590;22;20742;-87
2023/06/29 11:20:33;;;;;;;3.92;1.10;;;;;;;;;;12917805;22;20380;-87
2023/06/29 11:25:37;;;;;;;1.63;1.17;;;;;;;;;;12918423;22;20360;-86
2023/06/29 11:30:40;;;;;;;1.77;1.27;;;;;;;;;;12918260;22;20368;-87
2023/06/29 11:35:44;;;;;;;3.00;1.23;;;;;;;;;;12919557;22;20360;-87
2023/06/29 11:40:47;;;;;;;1.50;1.30;;;;;;;;;;12917309;22;20910;-87
2023/06/29 11:45:50;;;;;;;2.10;1.50;;;;;;;;;;12918860;22;20462;-87
2023/06/29 11:50:59;;;;;;;1.60;1.40;;;;;;;;;;12917903;22;20364;-87
2023/06/29 11:56:01;;;;;;;1.42;1.30;;;;;;;;;;12917024;23;20361;-87
2023/06/29 12:01:03;;;;;;;1.60;1.45;;;;;;;;;;12918525;22;20414;-87
2023/06/29 12:06:07;;;;;;;2.17;1.30;;;;;;;;;;12917625;22;20361;-87
2023/06/29 12:11:16;;;;;;;2.35;1.40;;;;;;;;;;12917742;22;20396;-87
2023/06/29 12:16:18;;;;;;;7.43;1.67;;;;;;;;;;12917800;22;20430;-88
2023/06/29 12:21:22;;;;;;;3.10;1.50;;;;;;;;;;12917099;22;20450;-87
2023/06/29 12:26:25;;;;;;;1.58;1.42;;;;;;;;;;12917118;22;20368;-87
2023/06/29 12:31:27;;;;;;;4.72;1.55;;;;;;;;;;12917895;22;20466;-87
2023/06/29 12:36:31;;;;;;;1.52;1.42;;;;;;;;;;12917435;22;20376;-87
2023/06/29 12:41:34;;;;;;;1.67;1.40;;;;;;;;;;12916919;22;20388;-87
2023/06/29 12:46:36;;;;;;;1.58;1.48;;;;;;;;;;12917538;22;20365;-87
2023/06/29 12:51:40;;;;;;;2.22;1.50;;;;;;;;;;12916378;22;20690;-87
2023/06/29 12:56:42;;;;;;;1.93;1.40;;;;;;;;;;12917611;22;20403;-87
2023/06/29 13:01:44;;;;;;;3.93;1.80;;;;;;;;;;12917340;22;20713;-87
2023/06/29 13:06:53;;;;;;;1.90;1.47;;;;;;;;;;12917205;22;20376;-87
2023/06/29 13:11:55;;;;;;;1.60;1.50;;;;;;;;;;12937930;23;20613;-87
2023/06/29 13:16:57;;;;;;;2.90;2.30;;;;;;;;;;12917386;22;20414;-87
2023/06/29 13:22:04;;;;;;;2.80;1.60;;;;;;;;;;12916402;23;20388;-86
2023/06/29 13:27:07;;;;;;;2.42;1.50;;;;;;;;;;12916937;22;20418;-88
2023/06/29 13:32:10;;;;;;;2.20;1.70;;;;;;;;;;12916757;22;20422;-88
2023/06/29 13:37:14;;;;;;;3.85;1.42;;;;;;;;;;12916371;22;20450;-87
2023/06/29 13:42:17;;;;;;;3.60;1.60;;;;;;;;;;12915813;22;20445;-87
2023/06/29 13:47:22;;;;;;;5.30;1.60;;;;;;;;;;12915976;22;20372;-87
2023/06/29 13:52:26;;;;;;;2.15;1.40;;;;;;;;;;12915755;22;20422;-87
2023/06/29 13:57:28;;;;;;;2.00;1.50;;;;;;;;;;12917042;22;20426;-87
2023/06/29 14:02:30;;;;;;;2.03;1.60;;;;;;;;;;12916683;22;20445;-86
2023/06/29 14:07:34;;;;;;;1.80;1.35;;;;;;;;;;12915954;22;20368;-87
2023/06/29 14:12:36;;;;;;;4.23;1.50;;;;;;;;;;12934226;23;20376;-87
2023/06/29 14:17:39;;;;;;;47.33;5.55;;;;;;;;;;12915938;22;20427;-88
2023/06/29 14:22:43;;;;;;;15.70;2.60;;;;;;;;;;12915777;22;20384;-86
2023/06/29 14:27:45;;;;;;;2.37;1.40;;;;;;;;;;12916324;22;20447;-87
2023/06/29 14:32:48;;;;;;;3.85;1.60;;;;;;;;;;12916747;22;20418;-87
2023/06/29 14:37:52;;;;;;;1.83;1.40;;;;;;;;;;12916560;22;20396;-87
2023/06/29 14:42:54;;;;;;;5.90;1.65;;;;;;;;;;12917778;22;20388;-88
2023/06/29 14:47:56;;;;;;;9.03;1.80;;;;;;;;;;12921004;22;20910;-88
2023/06/29 14:53:00;;;;;;;3.08;1.25;;;;;;;;;;12919389;22;20507;-88
2023/06/29 14:58:04;;;;;;;1.73;1.60;;;;;;;;;;12920510;22;20368;-88
2023/06/29 15:03:06;;;;;;;1.30;1.20;;;;;;;;;;12919797;23;20372;-88
2023/06/29 15:08:10;;;;;;;2.15;1.33;;;;;;;;;;12918761;22;20410;-87
2023/06/29 15:13:12;;;;;;;2.30;1.40;;;;;;;;;;12920515;22;20430;-87
2023/06/29 15:18:15;;;;;;;3.83;1.58;;;;;;;;;;12919179;22;20364;-87
2023/06/29 15:23:19;;;;;;;3.50;1.20;;;;;;;;;;12918766;22;20380;-88
2023/06/29 15:28:21;;;;;;;2.33;1.42;;;;;;;;;;12920093;22;20356;-87
2023/06/29 15:33:24;;;;;;;3.42;1.15;;;;;;;;;;12940394;23;20744;-88
2023/06/29 15:38:28;;;;;;;2.20;1.20;;;;;;;;;;12919592;22;20368;-87
2023/06/29 15:43:30;;;;;;;2.20;1.35;;;;;;;;;;12919259;22;20438;-87
2023/06/29 15:48:32;;;;;;;2.03;1.17;;;;;;;;;;12939857;23;20399;-87
2023/06/29 15:53:36;;;;;;;2.00;1.15;;;;;;;;;;12917731;23;20407;-88
2023/06/29 15:58:38;;;;;;;1.73;1.20;;;;;;;;;;12918398;22;20387;-87
2023/06/29 16:03:41;;;;;;;1.52;1.33;;;;;;;;;;12939464;23;20922;-87
2023/06/29 16:08:44;;;;;;;6.57;1.40;;;;;;;;;;12918183;22;20364;-88
2023/06/29 16:13:47;;;;;;;16.15;1.90;;;;;;;;;;12918023;22;20364;-86
2023/06/29 16:18:49;;;;;;;5.23;1.40;;;;;;;;;;12918810;23;20675;-86
2023/06/29 16:23:53;;;;;;;4.35;1.30;;;;;;;;;;12916788;22;20381;-87
2023/06/29 16:28:55;;;;;;;2.33;1.00;;;;;;;;;;12918470;22;20422;-86
2023/06/29 16:33:58;;;;;;;1.73;1.20;;;;;;;;;;12918188;22;20391;-87
2023/06/29 16:39:01;;;;;;;1.83;1.05;;;;;;;;;;12916417;22;20369;-87
2023/06/29 16:44:04;;;;;;;2.30;1.20;;;;;;;;;;12917766;22;20388;-87
2023/06/29 16:49:06;;;;;;;1.30;1.15;;;;;;;;;;12917119;22;20698;-87
2023/06/29 16:54:10;;;;;;;2.13;1.05;;;;;;;;;;12938644;23;20369;-86
2023/06/29 16:59:13;;;;;;;3.33;1.30;;;;;;;;;;12917630;22;20434;-87
2023/06/29 17:04:15;;;;;;;1.80;1.20;;;;;;;;;;12916982;22;20462;-87
2023/06/29 17:09:19;;;;;;;3.17;1.20;;;;;;;;;;12938799;23;20426;-87
2023/06/29 17:14:21;;;;;;;3.63;1.30;;;;;;;;;;12937836;23;20987;-87
2023/06/29 17:19:23;;;;;;;2.47;1.20;;;;;;;;;;12917041;22;20368;-86
2023/06/29 17:24:27;;;;;;;2.13;1.20;;;;;;;;;;12916274;22;20376;-86
2023/06/29 17:29:30;;;;;;;2.83;1.00;;;;;;;;;;12927514;23;20431;-86
2023/06/29 17:34:32;;;;;;;4.17;1.10;;;;;;;;;;12916013;22;20418;-86
2023/06/29 17:39:36;;;;;;;3.10;1.40;;;;;;;;;;12916488;22;20360;-86
2023/06/29 17:44:38;;;;;;;2.63;1.10;;;;;;;;;;12916141;23;20372;-86
2023/06/29 17:49:42;;;;;;;2.00;1.50;;;;;;;;;;12915982;22;20716;-86
2023/06/29 17:54:48;;;;;;;1.50;1.10;;;;;;;;;;12936562;23;20403;-87
2023/06/29 17:59:50;;;;;;;2.40;1.20;;;;;;;;;;12915557;22;20426;-86
2023/06/29 18:04:53;;;;;;;2.13;1.08;;;;;;;;;;12936732;23;20446;-87
2023/06/29 18:09:58;;;;;;;1.88;1.30;;;;;;;;;;12915277;22;20418;-86
2023/06/29 18:15:01;;;;;;;2.78;1.10;;;;;;;;;;12937002;23;20400;-87
2023/06/29 18:20:04;;;;;;;4.93;1.30;;;;;;;;;;12919378;22;20438;-86
2023/06/29 18:25:09;;;;;;;3.45;1.20;;;;;;;;;;12919141;22;20437;-86
2023/06/29 18:30:13;;;;;;;1.58;0.93;;;;;;;;;;12919516;22;20890;-87
2023/06/29 18:35:15;;;;;;;1.70;1.30;;;;;;;;;;12920519;22;20426;-86
2023/06/29 18:40:24;;;;;;;2.30;1.30;;;;;;;;;;12919204;22;20422;-87
2023/06/29 18:45:28;;;;;;;2.33;1.10;;;;;;;;;;12919596;22;20392;-86
2023/06/29 18:50:31;;;;;;;2.90;1.38;;;;;;;;;;12919063;22;20360;-86
2023/06/29 18:55:35;;;;;;;2.70;1.33;;;;;;;;;;12918455;22;20356;-86
2023/06/29 19:00:38;;;;;;;6.00;1.60;;;;;;;;;;12962186;23;20365;-87
2023/06/29 19:05:40;;;;;;;3.77;1.43;;;;;;;;;;12932252;22;20360;-86
2023/06/29 19:10:44;;;;;;;2.28;1.40;;;;;;;;;;12920322;23;20667;-86
2023/06/29 19:15:47;;;;;;;4.20;1.50;;;;;;;;;;12920321;22;20364;-86
2023/06/29 19:20:50;;;;;;;2.85;1.40;;;;;;;;;;12919653;23;20376;-86
2023/06/29 19:25:54;;;;;;;4.07;1.27;;;;;;;;;;12918685;22;20419;-86
2023/06/29 19:30:57;;;;;;;4.45;2.10;;;;;;;;;;12918303;23;20368;-87
2023/06/29 19:35:59;;;;;;;2.92;2.00;;;;;;;;;;12919610;22;20388;-87
2023/06/29 19:41:03;;;;;;;3.40;1.40;;;;;;;;;;12918830;22;20697;-87
2023/06/29 19:46:06;;;;;;;3.67;1.60;;;;;;;;;;12919924;22;20434;-87
2023/06/29 19:51:09;;;;;;;3.63;1.40;;;;;;;;;;12918940;22;20361;-87
2023/06/29 19:56:12;;;;;;;2.95;1.65;;;;;;;;;;12917801;22;20364;-86
2023/06/29 20:01:15;;;;;;;2.37;1.40;;;;;;;;;;12918635;22;20403;-87
2023/06/29 20:06:17;;;;;;;3.72;2.00;;;;;;;;;;12933684;22;20422;-86
2023/06/29 20:11:22;;;;;;;3.45;1.60;;;;;;;;;;12933242;22;20369;-87
2023/06/29 20:16:25;;;;;;;3.97;1.90;;;;;;;;;;12929372;23;20373;-87
2023/06/29 20:21:27;;;;;;;3.22;1.88;;;;;;;;;;12939195;23;20376;-87
2023/06/29 20:26:32;;;;;;;4.07;1.90;;;;;;;;;;12916875;22;20426;-87
2023/06/29 20:31:34;;;;;;;4.00;1.88;;;;;;;;;;12917604;22;20821;-86
2023/06/29 20:36:36;;;;;;;3.97;1.88;;;;;;;;;;12916557;22;20678;-87
2023/06/29 20:41:40;;;;;;;3.42;1.88;;;;;;;;;;12916951;22;20388;-87
2023/06/29 20:46:43;;;;;;;3.58;2.10;;;;;;;;;;12916815;22;20391;-86
2023/06/29 20:51:45;;;;;;;2.40;1.85;;;;;;;;;;12916988;23;20418;-87
2023/06/29 20:56:49;;;;;;;5.90;2.20;;;;;;;;;;12937955;23;20365;-87
2023/06/29 21:01:51;;;;;;;3.88;2.00;;;;;;;;;;12916649;23;20450;-87
2023/06/29 21:06:53;;;;;;;3.15;2.20;;;;;;;;;;12917171;23;20427;-86
2023/06/29 21:11:57;;;;;;;3.33;2.03;;;;;;;;;;12934218;22;20380;-87
2023/06/29 21:17:00;;;;;;;5.25;2.08;;;;;;;;;;12916848;22;20437;-86
2023/06/29 21:22:03;;;;;;;3.38;2.13;;;;;;;;;;12937155;23;20705;-87
2023/06/29 21:27:10;;;;;;;4.40;2.13;;;;;;;;;;12917106;22;20364;-87
2023/06/29 21:32:13;;;;;;;4.22;1.80;;;;;;;;;;12916228;23;20910;-86
2023/06/29 21:37:16;;;;;;;3.83;1.95;;;;;;;;;;12915996;22;20426;-86
2023/06/29 21:42:19;;;;;;;4.00;2.28;;;;;;;;;;12915423;22;20437;-86
2023/06/29 21:47:22;;;;;;;4.15;1.85;;;;;;;;;;12916355;22;20423;-87
2023/06/29 21:52:24;;;;;;;5.25;1.98;;;;;;;;;;12938432;23;20847;-86
2023/06/29 21:57:28;;;;;;;2.95;2.00;;;;;;;;;;12920249;22;21358;-86
2023/06/29 22:02:30;;;;;;;3.20;1.80;;;;;;;;;;12921254;22;20380;-87
2023/06/29 22:07:32;;;;;;;4.78;2.00;;;;;;;;;;12919676;22;20379;-86
2023/06/29 22:12:41;;;;;;;3.50;1.83;;;;;;;;;;12920078;22;20364;-87
2023/06/29 22:17:43;;;;;;;3.70;2.13;;;;;;;;;;12919937;22;20360;-86
2023/06/29 22:22:45;;;;;;;4.18;2.05;;;;;;;;;;12919658;22;20384;-86
2023/06/29 22:27:49;;;;;;;6.17;2.93;;;;;;;;;;12920384;22;20353;-87
2023/06/29 22:32:51;;;;;;;4.40;2.50;;;;;;;;;;12920388;22;20434;-86
2023/06/29 22:37:54;;;;;;;3.47;2.70;;;;;;;;;;12918934;22;20442;-87
2023/06/29 22:42:58;;;;;;;3.47;2.60;;;;;;;;;;12919637;22;20380;-87
2023/06/29 22:48:01;;;;;;;4.37;3.10;;;;;;;;;;12920713;22;20364;-87
2023/06/29 22:53:04;;;;;;;5.07;2.97;;;;;;;;;;12940295;23;20414;-87
2023/06/29 22:58:07;;;;;;;7.50;3.00;;;;;;;;;;12919390;22;20365;-87
2023/06/29 23:03:11;;;;;;;3.92;2.40;;;;;;;;;;12919803;22;20914;-87
2023/06/29 23:08:14;;;;;;;4.78;2.53;;;;;;;;;;12939723;23;20360;-86
2023/06/29 23:13:17;;;;;;;4.70;2.30;;;;;;;;;;12919325;22;20403;-86
2023/06/29 23:18:20;;;;;;;3.60;2.45;;;;;;;;;;12918960;22;20360;-86
2023/06/29 23:23:24;;;;;;;4.47;2.45;;;;;;;;;;12939147;23;20376;-87
2023/06/29 23:28:28;;;;;;;5.03;3.70;;;;;;;;;;12940355;23;20360;-87
2023/06/29 23:33:31;;;;;;;6.00;4.13;;;;;;;;;;12919321;22;20434;-87
2023/06/29 23:44:11;;;;;;;7.03;4.83;;;;;;;;;;12571382;23;20445;-85
2023/06/29 23:49:15;;;;;;;6.38;4.82;;;;;;;;;;12672823;23;20376;-85
2023/06/29 23:54:18;;;;;;;6.67;4.97;;;;;;;;;;12672349;23;20407;-84
2023/06/29 23:59:21;;;;;;;5.10;4.60;;;;;;;;;;12672328;23;20423;-85
